Time;durP1;ratioP1;P1;durP2;ratioP2;P2;SDS_P1;SDS_P2;PMS_P1;PMS_P2;Temp;Humidity;BMP_temperature;BMP_pressure;BME280_temperature;BME280_humidity;BME280_pressure;Samples;Min_cycle;Max_cycle;Signal;HPM_P1;HPM_P2
2022/07/01 00:00:58;;;;;;;;;;;;;;;23.07;52.56;101643.66;2107701;28;1209;-48
2022/07/01 00:01:58;;;;;;;;;;;;;;;23.00;52.97;101639.38;2106588;28;1089;-47
2022/07/01 00:02:59;;;;;;;;;;;;;;;22.95;53.11;101658.44;2107537;28;1161;-48
2022/07/01 00:03:59;;;;;;;;;;;;;;;22.93;53.11;101655.81;2107661;28;1124;-48
2022/07/01 00:04:59;;;;;;;;;;;;;;;22.95;52.58;101663.84;2107720;28;1073;-51
2022/07/01 00:05:59;;;;;;;;;;;;;;;22.99;53.17;101668.22;2107636;28;1073;-51
2022/07/01 00:06:59;;;;;;;;;;;;;;;23.06;52.80;101655.41;2107768;28;1124;-51
2022/07/01 00:07:59;;;;;;;;;;;;;;;23.06;53.33;101655.41;2106510;28;1890;-50
2022/07/01 00:09:00;;;;;;;;;;;;;;;23.04;53.36;101668.97;2106616;28;1150;-50
2022/07/01 00:10:00;;;;;;;;;;;;;;;23.03;54.28;101660.88;2107611;28;1089;-47
2022/07/01 00:11:00;;;;;;;;;;;;;;;23.02;53.39;101667.22;2107572;28;1065;-47
2022/07/01 00:12:00;;;;;;;;;;;;;;;22.99;54.05;101662.81;2107519;28;1065;-46
2022/07/01 00:13:00;;;;;;;;;;;;;;;22.93;54.73;101660.31;2107717;28;1140;-48
2022/07/01 00:14:00;;;;;;;;;;;;;;;22.87;54.68;101666.78;2107462;28;1077;-46
2022/07/01 00:15:00;;;;;;;;;;;;;;;22.83;54.56;101667.81;2107784;28;1085;-46
2022/07/01 00:16:01;;;;;;;;;;;;;;;22.83;54.51;101664.22;2106511;28;1077;-47
2022/07/01 00:17:01;;;;;;;;;;;;;;;22.80;54.41;101662.50;2107720;28;1195;-47
2022/07/01 00:18:02;;;;;;;;;;;;;;;22.76;54.52;101666.22;2107503;28;1159;-49
2022/07/01 00:19:03;;;;;;;;;;;;;;;22.72;54.35;101669.94;2107551;28;1054;-48
2022/07/01 00:20:04;;;;;;;;;;;;;;;22.71;54.37;101660.06;2107605;28;1113;-48
2022/07/01 00:21:04;;;;;;;;;;;;;;;22.73;54.56;101658.22;2107417;28;1117;-49
2022/07/01 00:22:04;;;;;;;;;;;;;;;22.77;54.18;101668.00;2107533;28;1074;-48
2022/07/01 00:23:04;;;;;;;;;;;;;;;22.80;54.26;101671.47;2106428;28;1176;-52
2022/07/01 00:24:04;;;;;;;;;;;;;;;22.90;53.40;101665.78;2107544;28;1189;-52
2022/07/01 00:25:05;;;;;;;;;;;;;;;22.96;53.54;101665.63;2107720;28;1057;-52
2022/07/01 00:26:06;;;;;;;;;;;;;;;23.01;53.49;101662.75;2107741;28;1069;-52
2022/07/01 00:27:06;;;;;;;;;;;;;;;23.02;52.31;101656.41;2107684;28;1065;-50
2022/07/01 00:28:07;;;;;;;;;;;;;;;23.01;52.25;101665.47;2107364;28;1926;-47
2022/07/01 00:29:07;;;;;;;;;;;;;;;22.99;51.54;101664.63;2107699;28;1014;-48
2022/07/01 00:30:08;;;;;;;;;;;;;;;22.92;50.65;101659.44;2106644;28;1077;-46
2022/07/01 00:31:08;;;;;;;;;;;;;;;22.86;51.48;101656.91;2107677;28;1050;-48
2022/07/01 00:32:09;;;;;;;;;;;;;;;22.80;51.71;101660.66;2107575;28;1114;-47
2022/07/01 00:33:09;;;;;;;;;;;;;;;22.75;51.06;101657.22;2107457;28;1058;-47
2022/07/01 00:34:09;;;;;;;;;;;;;;;22.72;50.80;101661.84;2107519;28;1125;-47
2022/07/01 00:35:09;;;;;;;;;;;;;;;22.67;51.27;101661.09;2107386;28;1053;-48
2022/07/01 00:36:09;;;;;;;;;;;;;;;22.64;50.53;101659.38;2107386;28;1061;-48
2022/07/01 00:37:09;;;;;;;;;;;;;;;22.60;50.60;101657.69;2106530;28;1057;-47
2022/07/01 00:38:10;;;;;;;;;;;;;;;22.58;50.66;101655.03;2107495;28;1069;-51
2022/07/01 00:39:10;;;;;;;;;;;;;;;22.65;48.94;101648.50;2107570;28;1030;-50
2022/07/01 00:40:11;;;;;;;;;;;;;;;22.74;49.87;101651.88;2107449;28;1065;-52
2022/07/01 00:41:11;;;;;;;;;;;;;;;22.77;49.90;101641.84;2107392;28;1029;-51
2022/07/01 00:42:11;;;;;;;;;;;;;;;22.79;48.55;101644.53;2107351;28;1062;-51
2022/07/01 00:43:11;;;;;;;;;;;;;;;22.80;49.30;101643.59;2107286;28;1138;-49
2022/07/01 00:44:15;;;;;;;;;;;;;;;22.78;48.59;101634.66;2106507;28;1063;-51
2022/07/01 00:45:16;;;;;;;;;;;;;;;22.76;49.13;101631.09;2107370;28;1041;-46
2022/07/01 00:46:16;;;;;;;;;;;;;;;22.73;50.08;101639.31;2107257;28;1070;-47
2022/07/01 00:47:16;;;;;;;;;;;;;;;22.67;49.14;101639.47;2107425;28;1109;-48
2022/07/01 00:48:18;;;;;;;;;;;;;;;22.63;49.84;101641.41;2107149;28;1948;-48
2022/07/01 00:49:18;;;;;;;;;;;;;;;22.60;50.49;101639.66;2107414;28;1116;-48
2022/07/01 00:50:18;;;;;;;;;;;;;;;22.59;51.14;101635.19;2107357;28;1191;-48
2022/07/01 00:51:19;;;;;;;;;;;;;;;22.64;51.32;101638.63;2106470;28;1236;-50
2022/07/01 00:52:20;;;;;;;;;;;;;;;22.68;51.38;101638.56;2107188;28;898;-48
2022/07/01 00:53:21;;;;;;;;;;;;;;;22.73;51.16;101642.88;2107275;28;1168;-53
2022/07/01 00:54:21;;;;;;;;;;;;;;;22.79;51.46;101644.53;2107331;28;1173;-52
2022/07/01 00:55:21;;;;;;;;;;;;;;;22.85;51.10;101636.22;2107344;28;1125;-52
2022/07/01 00:56:21;;;;;;;;;;;;;;;22.89;50.65;101621.69;2107321;28;1113;-52
2022/07/01 00:57:22;;;;;;;;;;;;;;;22.89;50.85;101624.41;2107222;28;1109;-51
2022/07/01 00:58:22;;;;;;;;;;;;;;;22.87;50.00;101618.16;2106584;28;1149;-49
2022/07/01 00:59:22;;;;;;;;;;;;;;;22.84;51.72;101618.25;2106685;28;1132;-48
2022/07/01 01:00:23;;;;;;;;;;;;;;;22.81;49.94;101621.06;2107090;28;1168;-46
2022/07/01 01:01:23;;;;;;;;;;;;;;;22.75;50.32;101622.09;2107111;28;1105;-47
2022/07/01 01:02:23;;;;;;;;;;;;;;;22.70;50.84;101621.34;2107211;28;1109;-47
2022/07/01 01:03:25;;;;;;;;;;;;;;;22.65;50.38;101616.09;2107130;28;1070;-47
2022/07/01 01:04:25;;;;;;;;;;;;;;;22.63;50.97;101628.78;2107145;28;1105;-49
2022/07/01 01:05:25;;;;;;;;;;;;;;;22.67;50.76;101628.69;2106945;28;1098;-50
2022/07/01 01:06:25;;;;;;;;;;;;;;;22.71;50.93;101627.66;2106424;28;922;-52
2022/07/01 01:07:26;;;;;;;;;;;;;;;22.73;50.33;101623.09;2107151;28;1062;-51
2022/07/01 01:28:02;;;;;;;;;;;;;;;22.82;51.43;101600.31;2097117;28;1329;-49
2022/07/01 01:29:02;;;;;;;;;;;;;;;22.76;51.85;101596.00;2097670;28;1221;-50
2022/07/01 01:30:06;;;;;;;;;;;;;;;22.72;51.20;101610.53;2097599;28;1122;-50
2022/07/01 01:31:06;;;;;;;;;;;;;;;22.68;50.28;101600.75;2097432;28;1892;-50
2022/07/01 01:32:06;;;;;;;;;;;;;;;22.61;51.10;101592.81;2097681;28;1202;-51
2022/07/01 01:33:08;;;;;;;;;;;;;;;22.55;51.25;101589.44;2097630;28;1060;-49
2022/07/01 01:34:08;;;;;;;;;;;;;;;22.50;51.19;101581.44;2097651;28;1272;-49
2022/07/01 01:35:09;;;;;;;;;;;;;;;22.47;50.24;101584.25;2096593;28;1039;-51
2022/07/01 01:36:09;;;;;;;;;;;;;;;22.44;50.15;101582.53;2097533;28;1141;-51
2022/07/01 01:37:09;;;;;;;;;;;;;;;22.41;49.79;101577.19;2097271;28;1068;-50
2022/07/01 01:38:10;;;;;;;;;;;;;;;22.40;50.34;101577.22;2098031;28;1648;-53
2022/07/01 01:39:12;;;;;;;;;;;;;;;22.47;49.42;101578.84;2097952;28;1315;-53
2022/07/01 01:40:13;;;;;;;;;;;;;;;22.54;49.66;101577.72;2096822;28;1482;-53
2022/07/01 01:41:14;;;;;;;;;;;;;;;22.60;49.55;101571.28;2096714;28;1319;-53
2022/07/01 01:42:14;;;;;;;;;;;;;;;22.64;48.37;101564.84;2097209;28;1453;-54
2022/07/01 01:43:14;;;;;;;;;;;;;;;22.64;48.59;101570.25;2097532;28;1017;-50
2022/07/01 01:44:15;;;;;;;;;;;;;;;22.61;48.75;101563.13;2097192;28;932;-50
2022/07/01 01:45:15;;;;;;;;;;;;;;;22.59;48.19;101564.13;2097557;28;1281;-49
2022/07/01 01:46:15;;;;;;;;;;;;;;;22.57;48.52;101558.75;2097571;28;1130;-50
2022/07/01 01:47:15;;;;;;;;;;;;;;;22.49;49.63;101575.19;2097437;28;2044;-50
2022/07/01 01:48:16;;;;;;;;;;;;;;;22.48;49.16;101553.63;2097508;28;1043;-49
2022/07/01 01:49:16;;;;;;;;;;;;;;;22.46;49.05;101560.88;2096408;28;1122;-50
2022/07/01 01:50:16;;;;;;;;;;;;;;;22.47;50.39;101562.66;2097613;28;1185;-53
2022/07/01 01:51:18;;;;;;;;;;;;;;;22.48;50.20;101554.53;2097584;28;1130;-53
2022/07/01 01:52:18;;;;;;;;;;;;;;;22.53;50.97;101550.81;2097457;28;1127;-52
2022/07/01 01:53:19;;;;;;;;;;;;;;;22.61;50.99;101548.75;2097384;28;1215;-55
2022/07/01 01:54:19;;;;;;;;;;;;;;;22.67;50.40;101545.84;2097366;28;1203;-55
2022/07/01 01:55:19;;;;;;;;;;;;;;;22.71;50.27;101542.09;2097339;28;1206;-54
2022/07/01 01:56:19;;;;;;;;;;;;;;;22.73;50.55;101542.06;2096188;28;1091;-54
2022/07/01 01:57:19;;;;;;;;;;;;;;;22.74;49.80;101546.53;2097371;28;1134;-53
2022/07/01 01:58:19;;;;;;;;;;;;;;;22.71;50.60;101542.09;2097573;28;1130;-51
2022/07/01 01:59:20;;;;;;;;;;;;;;;22.69;51.26;101540.41;2097514;28;1272;-50
2022/07/01 02:00:20;;;;;;;;;;;;;;;22.65;51.36;101539.63;2097450;28;1134;-49
2022/07/01 02:01:20;;;;;;;;;;;;;;;22.59;50.39;101537.97;2097458;28;1193;-50
2022/07/01 02:02:20;;;;;;;;;;;;;;;22.57;50.90;101545.25;2097545;28;1134;-50
2022/07/01 02:03:20;;;;;;;;;;;;;;;22.51;51.67;101540.03;2096366;28;1757;-50
2022/07/01 02:04:20;;;;;;;;;;;;;;;22.49;50.95;101541.88;2096481;28;1055;-51
2022/07/01 02:05:21;;;;;;;;;;;;;;;22.53;51.00;101537.28;2097377;28;1186;-53
2022/07/01 02:06:22;;;;;;;;;;;;;;;22.57;50.60;101531.75;2097450;28;1055;-54
2022/07/01 02:07:22;;;;;;;;;;;;;;;22.61;50.35;101541.53;2097301;28;1894;-54
2022/07/01 02:08:22;;;;;;;;;;;;;;;22.61;50.92;101540.66;2097332;28;1227;-53
2022/07/01 02:09:22;;;;;;;;;;;;;;;22.61;50.83;101546.06;2097377;28;1237;-51
2022/07/01 02:10:23;;;;;;;;;;;;;;;22.60;50.02;101541.59;2097298;28;1143;-50
2022/07/01 02:11:23;;;;;;;;;;;;;;;22.58;51.00;101541.63;2096294;28;1190;-49
2022/07/01 02:12:23;;;;;;;;;;;;;;;22.53;51.30;101537.28;2097413;28;1055;-49
2022/07/01 02:13:23;;;;;;;;;;;;;;;22.51;51.47;101534.63;2097408;28;1122;-50
2022/07/01 02:14:23;;;;;;;;;;;;;;;22.50;51.58;101532.84;2097391;28;1082;-50
2022/07/01 02:15:23;;;;;;;;;;;;;;;22.45;51.53;101534.81;2097392;28;1047;-49
2022/07/01 02:16:24;;;;;;;;;;;;;;;22.44;51.09;101533.03;2097275;28;1051;-50
2022/07/01 02:17:25;;;;;;;;;;;;;;;22.41;51.78;101543.91;2097217;28;1035;-51
2022/07/01 02:18:25;;;;;;;;;;;;;;;22.41;52.45;101542.09;2096236;28;990;-50
2022/07/01 02:19:26;;;;;;;;;;;;;;;22.42;52.33;101535.78;2097376;28;1051;-51
2022/07/01 02:20:26;;;;;;;;;;;;;;;22.44;52.38;101538.44;2097282;28;1115;-50
2022/07/01 02:21:26;;;;;;;;;;;;;;;22.48;53.07;101542.81;2097353;28;1024;-52
2022/07/01 02:22:26;;;;;;;;;;;;;;;22.51;53.22;101545.44;2097283;28;988;-51
2022/07/01 02:23:26;;;;;;;;;;;;;;;22.59;53.58;101545.22;2097180;28;1070;-55
2022/07/01 02:24:27;;;;;;;;;;;;;;;22.67;53.08;101548.53;2097351;28;1074;-54
2022/07/01 02:25:27;;;;;;;;;;;;;;;22.73;53.49;101550.19;2096101;28;1019;-57
2022/07/01 02:26:27;;;;;;;;;;;;;;;22.74;53.95;101551.94;2097176;28;1031;-55
2022/07/01 02:27:27;;;;;;;;;;;;;;;22.72;54.40;101551.09;2100771;28;1964;-54
2022/07/01 02:28:27;;;;;;;;;;;;;;;22.70;53.71;101544.88;2105405;28;1239;-52
2022/07/01 02:29:28;;;;;;;;;;;;;;;22.68;54.62;101536.78;2105580;28;1003;-49
2022/07/01 02:30:28;;;;;;;;;;;;;;;22.64;54.77;101543.25;2105448;28;1047;-49
2022/07/01 02:31:28;;;;;;;;;;;;;;;22.59;54.70;101539.81;2105412;28;1058;-50
2022/07/01 02:32:28;;;;;;;;;;;;;;;22.55;55.28;101544.41;2105414;28;1198;-50
2022/07/01 02:33:29;;;;;;;;;;;;;;;22.53;54.56;101545.41;2104481;28;1042;-50
2022/07/01 02:34:29;;;;;;;;;;;;;;;22.50;54.93;101549.97;2105521;28;1121;-50
2022/07/01 02:35:29;;;;;;;;;;;;;;;22.48;55.28;101542.81;2105372;28;976;-51
2022/07/01 02:36:29;;;;;;;;;;;;;;;22.45;54.86;101546.50;2105361;28;1046;-51
2022/07/01 02:37:29;;;;;;;;;;;;;;;22.44;55.46;101547.44;2105308;28;1070;-51
2022/07/01 02:38:30;;;;;;;;;;;;;;;22.44;54.88;101544.75;2105185;28;1039;-54
2022/07/01 02:39:31;;;;;;;;;;;;;;;22.48;54.52;101545.53;2099142;28;1099;-54
2022/07/01 02:40:33;;;;;;;;;;;;;;;22.52;54.78;101549.91;2098671;28;1063;-55
2022/07/01 02:42:22;;;;;;;;;;;;;;;22.55;54.46;101551.63;2099721;28;1138;-55
2022/07/01 02:42:54;;;;;;;;;;;;;;;22.56;53.68;101551.56;2099606;28;1519;-51
2022/07/01 02:43:54;;;;;;;;;;;;;;;22.56;53.26;101548.00;2099819;28;1181;-51
2022/07/01 02:44:54;;;;;;;;;;;;;;;22.54;53.40;101548.03;2099803;28;996;-49
2022/07/01 02:45:55;;;;;;;;;;;;;;;22.52;52.84;101546.31;2099850;28;983;-49
2022/07/01 02:46:57;;;;;;;;;;;;;;;22.44;53.05;101543.84;2099843;28;1039;-49
2022/07/01 02:47:57;;;;;;;;;;;;;;;22.41;53.30;101535.81;2098619;28;1973;-50
2022/07/01 02:48:57;;;;;;;;;;;;;;;22.39;52.70;101529.56;2099768;28;1067;-50
2022/07/01 02:49:57;;;;;;;;;;;;;;;22.39;52.88;101529.56;2099802;28;1106;-52
2022/07/01 02:50:57;;;;;;;;;;;;;;;22.40;53.24;101521.44;2099779;28;1070;-53
2022/07/01 02:51:57;;;;;;;;;;;;;;;22.42;52.98;101513.28;2099694;28;1071;-52
2022/07/01 02:52:58;;;;;;;;;;;;;;;22.45;53.08;101521.31;2090861;28;1236;-55
2022/07/01 02:53:58;;;;;;;;;;;;;;;22.50;52.52;101519.38;2090837;28;1146;-55
2022/07/01 02:54:58;;;;;;;;;;;;;;;22.55;52.38;101522.81;2098686;28;1106;-56
2022/07/01 02:55:58;;;;;;;;;;;;;;;22.56;52.21;101527.28;2099581;28;1125;-55
2022/07/01 02:56:58;;;;;;;;;;;;;;;22.58;51.26;101524.53;2099666;28;1082;-54
2022/07/01 02:57:58;;;;;;;;;;;;;;;22.54;52.02;101534.53;2099567;28;1229;-52
2022/07/01 02:58:58;;;;;;;;;;;;;;;22.50;51.00;101528.34;2099754;28;1126;-50
2022/07/01 02:59:59;;;;;;;;;;;;;;;22.47;51.55;101484.34;2099572;28;1254;-49
2022/07/01 03:00:59;;;;;;;;;;;;;;;22.43;51.64;101472.75;2099714;28;1059;-49
2022/07/01 03:01:59;;;;;;;;;;;;;;;22.38;50.36;101469.31;2099590;28;1169;-50
2022/07/01 03:02:59;;;;;;;;;;;;;;;22.36;49.90;101472.06;2098645;28;891;-50
2022/07/01 03:03:59;;;;;;;;;;;;;;;22.31;50.00;101463.22;2099803;28;992;-52
2022/07/01 03:05:00;;;;;;;;;;;;;;;22.34;50.21;101464.94;2099632;28;1122;-53
2022/07/01 03:06:00;;;;;;;;;;;;;;;22.38;50.38;101452.22;2099668;28;1137;-54
2022/07/01 03:07:00;;;;;;;;;;;;;;;22.41;49.67;101463.81;2099513;28;1902;-54
2022/07/01 03:08:01;;;;;;;;;;;;;;;22.42;49.61;101554.66;2099701;28;1114;-54
2022/07/01 03:09:01;;;;;;;;;;;;;;;22.45;49.21;101535.72;2099748;28;1027;-52
2022/07/01 03:10:02;;;;;;;;;;;;;;;22.45;48.91;101529.41;2098718;28;1103;-50
2022/07/01 03:11:02;;;;;;;;;;;;;;;22.42;49.62;101533.06;2099765;28;1203;-49
2022/07/01 03:12:24;;;;;;;;;;;;;;;22.41;49.38;101557.41;2099530;28;1103;-49
2022/07/01 03:13:22;;;;;;;;;;;;;;;22.35;49.90;101564.78;2099562;28;1576;-51
2022/07/01 03:14:22;;;;;;;;;;;;;;;22.32;50.54;101556.78;2099664;28;1035;-51
2022/07/01 03:15:23;;;;;;;;;;;;;;;22.30;50.43;101552.31;2099511;28;1321;-50
2022/07/01 03:16:23;;;;;;;;;;;;;;;22.28;49.80;101540.69;2099618;28;1145;-50
2022/07/01 03:17:24;;;;;;;;;;;;;;;22.25;50.81;101525.50;2098639;28;1066;-50
2022/07/01 03:18:24;;;;;;;;;;;;;;;22.23;50.67;101524.66;2096462;28;1043;-52
2022/07/01 03:19:24;;;;;;;;;;;;;;;22.21;51.53;101524.69;2099647;28;1177;-53
2022/07/01 03:20:24;;;;;;;;;;;;;;;22.27;51.52;101520.03;2099721;28;1391;-51
2022/07/01 03:21:24;;;;;;;;;;;;;;;22.31;51.47;101510.91;2099640;28;1150;-53
2022/07/01 03:22:25;;;;;;;;;;;;;;;22.34;51.34;101511.72;2099491;28;1138;-50
2022/07/01 03:23:26;;;;;;;;;;;;;;;22.44;51.65;101497.94;2099195;28;1170;-57
2022/07/01 03:24:26;;;;;;;;;;;;;;;22.50;51.61;101489.66;2099436;28;1133;-55
2022/07/01 03:25:26;;;;;;;;;;;;;;;22.55;51.65;101484.13;2098406;28;1068;-55
2022/07/01 03:26:27;;;;;;;;;;;;;;;22.59;51.01;101478.56;2099412;28;1241;-56
2022/07/01 03:27:27;;;;;;;;;;;;;;;22.56;51.78;101472.41;2099236;28;1987;-55
2022/07/01 03:28:27;;;;;;;;;;;;;;;22.54;51.55;101480.53;2099408;28;1162;-53
2022/07/01 03:29:27;;;;;;;;;;;;;;;22.50;51.46;101476.16;2099479;28;1189;-50
2022/07/01 03:30:27;;;;;;;;;;;;;;;22.47;50.89;101468.16;2099260;28;1040;-51
2022/07/01 03:31:27;;;;;;;;;;;;;;;22.41;51.94;101447.63;2099308;28;1111;-52
2022/07/01 03:32:27;;;;;;;;;;;;;;;22.38;51.25;101454.91;2098297;28;1175;-51
2022/07/01 03:33:28;;;;;;;;;;;;;;;22.37;51.84;101448.66;2099473;28;1142;-50
2022/07/01 03:34:28;;;;;;;;;;;;;;;22.35;51.26;101453.22;2099378;28;1126;-51
2022/07/01 03:35:39;;;;;;;;;;;;;;;22.30;51.45;101452.47;2099573;28;1392;-53
2022/07/01 03:36:39;;;;;;;;;;;;;;;22.26;51.83;101449.00;2097870;28;1092;-51
2022/07/01 03:37:39;;;;;;;;;;;;;;;22.25;52.05;101449.94;2099373;28;1221;-51
2022/07/01 03:38:40;;;;;;;;;;;;;;;22.26;52.11;101445.41;2099296;28;1043;-55
2022/07/01 03:39:40;;;;;;;;;;;;;;;22.28;52.38;101439.03;2099078;28;1244;-55
2022/07/01 03:40:40;;;;;;;;;;;;;;;22.35;51.78;101437.03;2098947;28;954;-53
2022/07/01 03:41:41;;;;;;;;;;;;;;;22.40;51.77;101434.16;2099281;28;1130;-52
2022/07/01 03:42:41;;;;;;;;;;;;;;;22.42;51.68;101443.09;2099358;28;999;-50
2022/07/01 03:43:41;;;;;;;;;;;;;;;22.43;50.96;101436.75;2099257;28;1063;-47
2022/07/01 03:44:41;;;;;;;;;;;;;;;22.40;52.19;101436.84;2099274;28;1043;-47
2022/07/01 03:45:42;;;;;;;;;;;;;;;22.37;52.18;101418.97;2099210;28;1062;-47
2022/07/01 03:46:42;;;;;;;;;;;;;;;22.35;52.05;101432.53;2099129;28;1319;-47
2022/07/01 03:47:46;;;;;;;;;;;;;;;22.31;52.39;101428.16;2098109;28;1898;-48
2022/07/01 03:48:46;;;;;;;;;;;;;;;22.27;51.69;101426.47;2098325;28;1047;-48
2022/07/01 03:49:46;;;;;;;;;;;;;;;22.29;51.60;101426.41;2099149;28;1043;-50
2022/07/01 03:50:46;;;;;;;;;;;;;;;22.30;50.83;101434.47;2098320;28;1111;-50
2022/07/01 03:51:47;;;;;;;;;;;;;;;22.33;51.47;101434.38;2099115;28;1118;-51
2022/07/01 03:52:47;;;;;;;;;;;;;;;22.35;52.63;101429.81;2099141;28;1248;-52
2022/07/01 03:55:06;;;;;;;;;;;;;;;22.46;50.83;101423.19;2098248;28;1065;-53
2022/07/01 03:56:06;;;;;;;;;;;;;;;22.48;51.91;101424.03;2099219;28;1324;-53
2022/07/01 03:57:08;;;;;;;;;;;;;;;22.48;50.25;101424.94;2099113;28;1185;-51
2022/07/01 03:58:08;;;;;;;;;;;;;;;22.47;50.58;101428.56;2098870;28;1015;-48
2022/07/01 03:59:08;;;;;;;;;;;;;;;22.45;50.04;101421.44;2099084;28;1221;-47
2022/07/01 04:00:09;;;;;;;;;;;;;;;22.41;50.08;101431.44;2099178;28;1150;-47
2022/07/01 04:01:09;;;;;;;;;;;;;;;22.40;49.36;101435.06;2098963;28;1088;-47
2022/07/01 04:02:09;;;;;;;;;;;;;;;22.38;49.59;101438.72;2098802;28;1003;-48
2022/07/01 04:03:09;;;;;;;;;;;;;;;23.37;47.84;101439.06;2098561;28;1046;-48
2022/07/01 04:04:10;;;;;;;;;;;;;;;23.98;46.07;101435.03;2099096;28;1150;-48
2022/07/01 04:05:10;;;;;;;;;;;;;;;24.32;45.52;101438.25;2099159;28;1292;-48
2022/07/01 04:06:10;;;;;;;;;;;;;;;24.54;45.50;101443.66;2098734;28;1146;-49
2022/07/01 04:07:11;;;;;;;;;;;;;;;24.75;45.49;101446.47;2099011;28;1987;-47
2022/07/01 04:08:11;;;;;;;;;;;;;;;24.91;44.36;101446.72;2099162;28;1221;-51
2022/07/01 04:09:12;;;;;;;;;;;;;;;24.97;44.03;101451.88;2099089;28;1130;-51
2022/07/01 04:10:12;;;;;;;;;;;;;;;25.05;44.19;101451.53;2098001;28;1071;-52
2022/07/01 04:11:13;;;;;;;;;;;;;;;25.10;44.05;101443.22;2098973;28;1079;-52
2022/07/01 04:12:13;;;;;;;;;;;;;;;25.18;45.05;101443.78;2098999;28;1213;-50
2022/07/01 04:13:13;;;;;;;;;;;;;;;25.24;44.43;101450.75;2098997;28;1170;-49
2022/07/01 04:14:13;;;;;;;;;;;;;;;25.30;44.65;101448.66;2099074;28;1138;-49
2022/07/01 04:15:14;;;;;;;;;;;;;;;25.32;43.54;101429.59;2098887;28;1360;-49
2022/07/01 04:16:14;;;;;;;;;;;;;;;25.37;43.59;101440.22;2099002;28;1127;-46
2022/07/01 04:17:14;;;;;;;;;;;;;;;25.44;45.47;101439.03;2099015;28;1265;-47
2022/07/01 04:18:14;;;;;;;;;;;;;;;25.45;44.72;101438.09;2097860;28;1071;-51
2022/07/01 04:19:14;;;;;;;;;;;;;;;25.52;43.88;101438.72;2098873;28;1126;-49
2022/07/01 04:20:14;;;;;;;;;;;;;;;25.62;43.91;101434.59;2098784;28;1134;-49
2022/07/01 04:22:33;;;;;;;;;;;;;;;25.68;44.84;101445.19;2098609;28;1005;-49
2022/07/01 04:23:33;;;;;;;;;;;;;;;25.62;43.75;101436.47;2098852;28;1260;-53
2022/07/01 04:24:33;;;;;;;;;;;;;;;25.59;44.49;101442.91;2098908;28;1146;-52
2022/07/01 04:25:34;;;;;;;;;;;;;;;25.59;45.94;101441.06;2098105;28;1249;-52
2022/07/01 04:26:34;;;;;;;;;;;;;;;25.60;45.38;101441.97;2098941;28;1229;-53
2022/07/01 04:27:34;;;;;;;;;;;;;;;25.68;46.30;101436.19;2098793;28;1993;-51
2022/07/01 04:28:35;;;;;;;;;;;;;;;25.68;44.65;101447.03;2098745;28;1385;-50
2022/07/01 04:29:35;;;;;;;;;;;;;;;25.69;44.50;101443.38;2099084;28;1190;-49
2022/07/01 04:30:35;;;;;;;;;;;;;;;25.72;44.58;101437.81;2098986;28;1289;-47
2022/07/01 04:31:36;;;;;;;;;;;;;;;25.80;44.58;101434.72;2098864;28;1142;-47
2022/07/01 04:32:36;;;;;;;;;;;;;;;25.87;44.82;101428.06;2098429;28;1071;-47
2022/07/01 04:33:36;;;;;;;;;;;;;;;25.98;44.47;101435.69;2089213;28;1052;-49
2022/07/01 04:34:36;;;;;;;;;;;;;;;26.08;44.66;101430.72;2089944;28;1209;-49
2022/07/01 04:35:38;;;;;;;;;;;;;;;26.08;47.35;101439.72;2098647;28;1324;-48
2022/07/01 04:36:39;;;;;;;;;;;;;;;26.19;44.41;101433.84;2098888;28;1151;-48
2022/07/01 04:37:39;;;;;;;;;;;;;;;26.26;44.28;101434.41;2098913;28;1260;-48
2022/07/01 04:38:39;;;;;;;;;;;;;;;26.22;44.67;101427.38;2098882;28;1353;-52
2022/07/01 04:39:39;;;;;;;;;;;;;;;26.24;44.04;101429.03;2098897;28;1130;-52
2022/07/01 04:40:40;;;;;;;;;;;;;;;26.25;45.05;101432.66;2097809;28;1113;-50
2022/07/01 04:42:59;;;;;;;;;;;;;;;26.15;45.50;101427.66;2099129;28;887;-51
2022/07/01 04:43:59;;;;;;;;;;;;;;;26.22;45.37;101430.09;2098939;28;1327;-48
2022/07/01 04:44:59;;;;;;;;;;;;;;;26.27;45.02;101428.88;2098731;28;1143;-47
2022/07/01 04:45:59;;;;;;;;;;;;;;;26.33;46.28;101425.88;2098718;28;1207;-47
2022/07/01 04:47:00;;;;;;;;;;;;;;;26.36;45.58;101424.88;2098692;28;1198;-47
2022/07/01 04:48:00;;;;;;;;;;;;;;;26.37;45.40;101429.34;2097819;28;1965;-48
2022/07/01 04:49:00;;;;;;;;;;;;;;;26.48;45.44;101426.97;2098521;28;1102;-48
2022/07/01 04:50:01;;;;;;;;;;;;;;;26.47;45.94;101432.47;2098609;28;1039;-51
2022/07/01 04:51:02;;;;;;;;;;;;;;;26.48;46.11;101431.53;2098762;28;1119;-50
2022/07/01 04:52:02;;;;;;;;;;;;;;;26.55;45.36;101434.81;2098779;28;1182;-48
2022/07/01 04:53:02;;;;;;;;;;;;;;;26.52;46.44;101430.41;2098692;28;1067;-52
2022/07/01 04:54:03;;;;;;;;;;;;;;;26.38;46.14;101436.53;2098750;28;1150;-52
2022/07/01 04:55:03;;;;;;;;;;;;;;;26.27;46.92;101433.47;2098814;28;1201;-52
2022/07/01 04:56:03;;;;;;;;;;;;;;;26.20;48.51;101432.88;2097722;28;1126;-52
2022/07/01 04:57:03;;;;;;;;;;;;;;;26.14;46.56;101431.31;2098665;28;1142;-51
2022/07/01 04:58:04;;;;;;;;;;;;;;;26.15;48.16;101426.78;2098747;28;1186;-48
2022/07/01 04:59:04;;;;;;;;;;;;;;;26.31;45.48;101427.78;2098580;28;1134;-49
2022/07/01 05:00:04;;;;;;;;;;;;;;;26.24;47.02;101429.03;2098657;28;1139;-47
2022/07/01 05:01:04;;;;;;;;;;;;;;;26.34;45.05;101418.63;2098679;28;1271;-48
2022/07/01 05:02:05;;;;;;;;;;;;;;;26.45;45.46;101418.09;2098553;28;1146;-48
2022/07/01 05:03:05;;;;;;;;;;;;;;;26.46;45.22;101426.19;2098638;28;1173;-47
2022/07/01 05:04:05;;;;;;;;;;;;;;;26.54;44.19;101424.88;2097718;28;1087;-49
2022/07/01 05:05:06;;;;;;;;;;;;;;;26.52;44.42;101427.69;2098729;28;1130;-51
2022/07/01 05:06:06;;;;;;;;;;;;;;;26.61;43.43;101429.97;2098715;28;1193;-51
2022/07/01 05:07:06;;;;;;;;;;;;;;;26.61;44.93;101420.91;2098665;28;1961;-50
2022/07/01 05:08:06;;;;;;;;;;;;;;;26.53;43.89;101421.31;2098810;28;1107;-50
2022/07/01 05:09:07;;;;;;;;;;;;;;;26.47;44.58;101425.22;2098742;28;1213;-49
2022/07/01 05:10:08;;;;;;;;;;;;;;;26.48;45.30;101418.84;2098737;28;1161;-47
2022/07/01 05:11:08;;;;;;;;;;;;;;;26.59;42.63;101415.56;2097700;28;1103;-50
2022/07/01 05:12:09;;;;;;;;;;;;;;;26.61;42.89;101420.91;2098618;28;1323;-47
2022/07/01 05:13:09;;;;;;;;;;;;;;;26.67;42.24;101414.31;2098719;28;1200;-46
2022/07/01 05:14:09;;;;;;;;;;;;;;;26.75;41.98;101412.94;2098719;28;1174;-48
2022/07/01 05:15:10;;;;;;;;;;;;;;;26.85;41.54;101407.09;2098805;28;1115;-47
2022/07/01 05:16:10;;;;;;;;;;;;;;;26.81;41.90;101409.03;2098778;28;1103;-48
2022/07/01 05:17:10;;;;;;;;;;;;;;;26.85;41.27;101407.94;2098836;28;1050;-48
2022/07/01 05:22:07;;;;;;;;;;;;;;;26.76;42.04;101406.56;2097580;28;875;-49
2022/07/01 05:23:07;;;;;;;;;;;;;;;26.82;42.03;101404.53;2098823;28;1043;-53
2022/07/01 05:24:08;;;;;;;;;;;;;;;26.62;42.29;101403.66;2098829;28;983;-52
2022/07/01 05:25:08;;;;;;;;;;;;;;;26.53;41.84;101404.13;2098721;28;1275;-52
2022/07/01 05:26:08;;;;;;;;;;;;;;;26.46;42.88;101401.72;2098760;28;1090;-52
2022/07/01 05:27:08;;;;;;;;;;;;;;;26.46;43.37;101395.41;2097458;28;1918;-52
2022/07/01 05:28:08;;;;;;;;;;;;;;;26.52;42.63;101397.81;2098631;28;1063;-48
2022/07/01 05:29:09;;;;;;;;;;;;;;;26.52;42.72;101396.91;2098626;28;1024;-47
2022/07/01 05:30:10;;;;;;;;;;;;;;;26.56;42.41;101394.00;2098793;28;1051;-47
2022/07/01 05:31:10;;;;;;;;;;;;;;;26.52;42.19;101395.09;2098708;28;1070;-47
2022/07/01 05:32:10;;;;;;;;;;;;;;;26.64;42.92;101385.44;2098716;28;1101;-48
2022/07/01 05:33:10;;;;;;;;;;;;;;;26.70;41.99;101390.56;2098657;28;1102;-48
2022/07/01 05:34:11;;;;;;;;;;;;;;;26.69;42.28;101385.22;2098427;28;1095;-48
2022/07/01 05:35:11;;;;;;;;;;;;;;;26.85;44.31;101377.19;2098038;28;972;-48
2022/07/01 05:36:11;;;;;;;;;;;;;;;26.86;42.05;101385.25;2098646;28;1094;-49
2022/07/01 05:37:11;;;;;;;;;;;;;;;26.91;41.70;101385.03;2098645;28;1055;-49
2022/07/01 05:38:12;;;;;;;;;;;;;;;26.85;42.16;101378.06;2098430;28;1126;-52
2022/07/01 05:39:12;;;;;;;;;;;;;;;26.83;42.63;101376.38;2098567;28;1281;-52
2022/07/01 05:40:12;;;;;;;;;;;;;;;26.83;43.82;101374.53;2098593;28;1137;-52
2022/07/01 05:41:12;;;;;;;;;;;;;;;26.79;42.69;101379.22;2098598;28;1078;-52
2022/07/01 05:42:12;;;;;;;;;;;;;;;26.87;43.41;101386.13;2097532;28;1142;-52
2022/07/01 05:43:12;;;;;;;;;;;;;;;26.75;42.88;101377.63;2098680;28;1066;-50